sensor_id;sensor_type;location;lat;lon;timestamp;pressure;altitude;pressure_sealevel;temperature;humidity
63773;BME280;49919;53.612;55.898;2022-09-23T00:00:28;99632.16;;;15.94;32.67
63773;BME280;49919;53.612;55.898;2022-09-23T00:01:59;99624.63;;;15.91;32.77
63773;BME280;49919;53.612;55.898;2022-09-23T00:03:31;99629.19;;;15.91;32.68
63773;BME280;49919;53.612;55.898;2022-09-23T00:05:03;99627.03;;;15.88;32.71
63773;BME280;49919;53.612;55.898;2022-09-23T00:06:34;99632.38;;;15.88;32.86
63773;BME280;49919;53.612;55.898;2022-09-23T00:08:06;99630.25;;;15.85;33.55
63773;BME280;49919;53.612;55.898;2022-09-23T00:09:37;99625.97;;;15.79;33.40
63773;BME280;49919;53.612;55.898;2022-09-23T00:11:14;99625.41;;;15.76;33.61
63773;BME280;49919;53.612;55.898;2022-09-23T00:12:45;99628.88;;;15.72;33.36
63773;BME280;49919;53.612;55.898;2022-09-23T00:14:16;99631.03;;;15.70;33.29
63773;BME280;49919;53.612;55.898;2022-09-23T00:15:47;99632.34;;;15.67;33.16
63773;BME280;49919;53.612;55.898;2022-09-23T00:17:18;99621.63;;;15.67;32.85
63773;BME280;49919;53.612;55.898;2022-09-23T00:18:49;99638.25;;;15.69;32.90
63773;BME280;49919;53.612;55.898;2022-09-23T00:20:20;99631.53;;;15.67;32.90
63773;BME280;49919;53.612;55.898;2022-09-23T00:21:51;99632.34;;;15.67;33.22
63773;BME280;49919;53.612;55.898;2022-09-23T00:23:22;99633.69;;;15.65;32.96
63773;BME280;49919;53.612;55.898;2022-09-23T00:24:53;99631.25;;;15.63;32.77
63773;BME280;49919;53.612;55.898;2022-09-23T00:26:24;99629.66;;;15.62;33.42
63773;BME280;49919;53.612;55.898;2022-09-23T00:27:55;99626.97;;;15.57;33.49
63773;BME280;49919;53.612;55.898;2022-09-23T00:29:26;99628.53;;;15.53;33.61
63773;BME280;49919;53.612;55.898;2022-09-23T00:31:05;99625.28;;;15.46;34.09
63773;BME280;49919;53.612;55.898;2022-09-23T00:32:36;99623.66;;;15.40;34.60
63773;BME280;49919;53.612;55.898;2022-09-23T00:34:09;99619.09;;;15.35;34.47
63773;BME280;49919;53.612;55.898;2022-09-23T00:35:40;99625.78;;;15.33;34.02
63773;BME280;49919;53.612;55.898;2022-09-23T00:37:11;99624.19;;;15.32;34.08
63773;BME280;49919;53.612;55.898;2022-09-23T00:38:43;99623.09;;;15.28;33.82
63773;BME280;49919;53.612;55.898;2022-09-23T00:40:20;99625.75;;;15.28;33.70
63773;BME280;49919;53.612;55.898;2022-09-23T00:41:51;99629.53;;;15.32;33.50
63773;BME280;49919;53.612;55.898;2022-09-23T00:43:44;99625.53;;;15.39;32.93
63773;BME280;49919;53.612;55.898;2022-09-23T00:45:16;99623.13;;;15.43;33.00
63773;BME280;49919;53.612;55.898;2022-09-23T00:46:47;99617.50;;;15.44;32.92
63773;BME280;49919;53.612;55.898;2022-09-23T00:48:19;99616.19;;;15.47;33.03
63773;BME280;49919;53.612;55.898;2022-09-23T00:50:14;99624.22;;;15.47;34.09
63773;BME280;49919;53.612;55.898;2022-09-23T00:51:52;99624.72;;;15.39;33.13
63773;BME280;49919;53.612;55.898;2022-09-23T00:53:25;99611.34;;;15.34;33.40
63773;BME280;49919;53.612;55.898;2022-09-23T00:54:57;99614.81;;;15.34;33.06
63773;BME280;49919;53.612;55.898;2022-09-23T00:56:31;99612.41;;;15.38;32.91
63773;BME280;49919;53.612;55.898;2022-09-23T00:58:04;99613.47;;;15.42;32.83
63773;BME280;49919;53.612;55.898;2022-09-23T00:59:37;99614.56;;;15.46;32.62
63773;BME280;49919;53.612;55.898;2022-09-23T01:01:09;99613.50;;;15.47;32.59
63773;BME280;49919;53.612;55.898;2022-09-23T01:02:41;99616.22;;;15.52;32.60
63773;BME280;49919;53.612;55.898;2022-09-23T01:04:12;99612.19;;;15.55;32.39
63773;BME280;49919;53.612;55.898;2022-09-23T01:05:44;99608.47;;;15.56;32.49
63773;BME280;49919;53.612;55.898;2022-09-23T01:07:17;99615.19;;;15.58;32.36
63773;BME280;49919;53.612;55.898;2022-09-23T01:08:48;99614.09;;;15.59;32.36
63773;BME280;49919;53.612;55.898;2022-09-23T01:10:19;99617.88;;;15.58;32.36
63773;BME280;49919;53.612;55.898;2022-09-23T01:14:33;99615.19;;;15.58;32.34
63773;BME280;49919;53.612;55.898;2022-09-23T01:18:19;99612.78;;;15.57;32.45
63773;BME280;49919;53.612;55.898;2022-09-23T01:20:28;99613.00;;;15.55;32.36
63773;BME280;49919;53.612;55.898;2022-09-23T01:26:09;99610.03;;;15.52;32.30
63773;BME280;49919;53.612;55.898;2022-09-23T01:30:02;99610.31;;;15.50;32.33
63773;BME280;49919;53.612;55.898;2022-09-23T01:36:52;99609.50;;;15.50;32.11
63773;BME280;49919;53.612;55.898;2022-09-23T01:40:17;99608.16;;;15.52;32.13
63773;BME280;49919;53.612;55.898;2022-09-23T01:45:47;99608.97;;;15.53;32.05
63773;BME280;49919;53.612;55.898;2022-09-23T01:47:31;99611.66;;;15.53;32.06
63773;BME280;49919;53.612;55.898;2022-09-23T01:49:08;99612.47;;;15.53;31.95
63773;BME280;49919;53.612;55.898;2022-09-23T01:50:47;99602.53;;;15.49;32.01
63773;BME280;49919;53.612;55.898;2022-09-23T01:55:39;99614.06;;;15.54;32.07
63773;BME280;49919;53.612;55.898;2022-09-23T01:57:15;99608.47;;;15.56;32.25
63773;BME280;49919;53.612;55.898;2022-09-23T02:01:07;99609.28;;;15.56;32.45
63773;BME280;49919;53.612;55.898;2022-09-23T02:02:46;99597.97;;;15.49;32.42
63773;BME280;49919;53.612;55.898;2022-09-23T02:06:35;99604.16;;;15.55;32.43
63773;BME280;49919;53.612;55.898;2022-09-23T02:09:47;99606.84;;;15.55;32.68
63773;BME280;49919;53.612;55.898;2022-09-23T02:11:22;99589.97;;;15.54;32.68
63773;BME280;49919;53.612;55.898;2022-09-23T02:12:58;99599.88;;;15.54;32.89
63773;BME280;49919;53.612;55.898;2022-09-23T02:14:49;99599.88;;;15.54;32.97
63773;BME280;49919;53.612;55.898;2022-09-23T02:16:32;99599.59;;;15.55;32.79
63773;BME280;49919;53.612;55.898;2022-09-23T02:18:16;99607.66;;;15.55;32.97
63773;BME280;49919;53.612;55.898;2022-09-23T02:19:53;99599.06;;;15.53;32.96
63773;BME280;49919;53.612;55.898;2022-09-23T02:21:33;99605.53;;;15.57;32.82
63773;BME280;49919;53.612;55.898;2022-09-23T02:23:11;99599.13;;;15.58;32.69
63773;BME280;49919;53.612;55.898;2022-09-23T02:24:44;99598.81;;;15.60;32.50
63773;BME280;49919;53.612;55.898;2022-09-23T02:26:33;99599.09;;;15.63;32.60
63773;BME280;49919;53.612;55.898;2022-09-23T02:28:11;99594.03;;;15.67;32.47
63773;BME280;49919;53.612;55.898;2022-09-23T02:30:23;99600.47;;;15.71;32.61
63773;BME280;49919;53.612;55.898;2022-09-23T02:32:09;99603.44;;;15.74;32.39
63773;BME280;49919;53.612;55.898;2022-09-23T02:38:52;99604.53;;;15.99;32.33
63773;BME280;49919;53.612;55.898;2022-09-23T02:42:20;99598.34;;;16.03;31.95
63773;BME280;49919;53.612;55.898;2022-09-23T02:44:06;99599.69;;;16.11;31.67
63773;BME280;49919;53.612;55.898;2022-09-23T02:45:37;99602.66;;;16.15;31.49
63773;BME280;49919;53.612;55.898;2022-09-23T02:47:08;99600.78;;;16.20;31.35
63773;BME280;49919;53.612;55.898;2022-09-23T02:48:43;99604.53;;;16.24;31.04
63773;BME280;49919;53.612;55.898;2022-09-23T02:50:16;99608.81;;;16.30;30.99
63773;BME280;49919;53.612;55.898;2022-09-23T02:51:49;99614.19;;;16.35;31.68
63773;BME280;49919;53.612;55.898;2022-09-23T02:53:24;99612.84;;;16.38;31.54
63773;BME280;49919;53.612;55.898;2022-09-23T02:54:55;99602.66;;;16.40;31.04
63773;BME280;49919;53.612;55.898;2022-09-23T02:56:26;99612.28;;;16.46;30.80
63773;BME280;49919;53.612;55.898;2022-09-23T02:57:59;99607.72;;;16.52;30.40
63773;BME280;49919;53.612;55.898;2022-09-23T02:59:32;99606.13;;;16.56;30.54
63773;BME280;49919;53.612;55.898;2022-09-23T03:01:26;99608.78;;;16.61;32.07
63773;BME280;49919;53.612;55.898;2022-09-23T03:08:47;99613.00;;;17.07;29.72
63773;BME280;49919;53.612;55.898;2022-09-23T03:10:54;99610.25;;;17.23;29.32
63773;BME280;49919;53.612;55.898;2022-09-23T03:14:42;99602.06;;;17.53;29.09
63773;BME280;49919;53.612;55.898;2022-09-23T03:16:29;99606.56;;;17.63;29.17
63773;BME280;49919;53.612;55.898;2022-09-23T03:18:22;99614.88;;;17.71;29.65
63773;BME280;49919;53.612;55.898;2022-09-23T03:20:07;99607.13;;;17.65;31.58
63773;BME280;49919;53.612;55.898;2022-09-23T03:21:48;99609.00;;;17.59;32.03
63773;BME280;49919;53.612;55.898;2022-09-23T03:23:25;99621.63;;;17.59;31.82
63773;BME280;49919;53.612;55.898;2022-09-23T03:25:01;99615.97;;;17.60;31.05
63773;BME280;49919;53.612;55.898;2022-09-23T03:26:36;99611.69;;;17.64;30.49
63773;BME280;49919;53.612;55.898;2022-09-23T03:28:09;99614.09;;;17.71;31.23
63773;BME280;49919;53.612;55.898;2022-09-23T03:29:44;99613.53;;;17.74;31.30
63773;BME280;49919;53.612;55.898;2022-09-23T03:31:17;99612.72;;;17.73;31.00
63773;BME280;49919;53.612;55.898;2022-09-23T03:32:48;99610.25;;;17.77;31.28
63773;BME280;49919;53.612;55.898;2022-09-23T03:34:28;99607.25;;;17.84;30.20
63773;BME280;49919;53.612;55.898;2022-09-23T03:36:05;99610.97;;;17.93;30.14
63773;BME280;49919;53.612;55.898;2022-09-23T03:38:11;99597.44;;;18.03;30.13
63773;BME280;49919;53.612;55.898;2022-09-23T03:42:00;99611.50;;;18.29;28.93
63773;BME280;49919;53.612;55.898;2022-09-23T03:43:33;99610.91;;;18.37;28.84
63773;BME280;49919;53.612;55.898;2022-09-23T03:45:08;99598.94;;;18.48;28.36
63773;BME280;49919;53.612;55.898;2022-09-23T03:46:39;99603.44;;;18.58;28.85
63773;BME280;49919;53.612;55.898;2022-09-23T03:48:12;99604.72;;;18.65;29.51
63773;BME280;49919;53.612;55.898;2022-09-23T03:49:47;99609.78;;;18.72;30.32
63773;BME280;49919;53.612;55.898;2022-09-23T03:51:22;99604.13;;;18.73;31.30
63773;BME280;49919;53.612;55.898;2022-09-23T03:52:53;99615.72;;;18.69;32.18
63773;BME280;49919;53.612;55.898;2022-09-23T03:54:25;99609.53;;;18.68;32.12
63773;BME280;49919;53.612;55.898;2022-09-23T03:55:59;99611.94;;;18.70;32.67
63773;BME280;49919;53.612;55.898;2022-09-23T03:57:30;99605.53;;;18.66;33.02
63773;BME280;49919;53.612;55.898;2022-09-23T03:59:01;99608.28;;;18.61;34.15
63773;BME280;49919;53.612;55.898;2022-09-23T04:00:32;99608.78;;;18.63;32.83
63773;BME280;49919;53.612;55.898;2022-09-23T04:02:06;99606.00;;;18.73;31.00
63773;BME280;49919;53.612;55.898;2022-09-23T04:03:37;99596.28;;;18.77;29.75
63773;BME280;49919;53.612;55.898;2022-09-23T04:05:11;99599.06;;;18.91;29.58
63773;BME280;49919;53.612;55.898;2022-09-23T04:06:43;99607.50;;;19.08;29.32
63773;BME280;49919;53.612;55.898;2022-09-23T04:08:14;99603.09;;;19.17;29.43
63773;BME280;49919;53.612;55.898;2022-09-23T04:09:45;99605.16;;;19.25;29.03
63773;BME280;49919;53.612;55.898;2022-09-23T04:11:16;99609.88;;;19.33;29.14
63773;BME280;49919;53.612;55.898;2022-09-23T04:12:47;99612.28;;;19.35;29.30
63773;BME280;49919;53.612;55.898;2022-09-23T04:14:19;99607.41;;;19.37;29.49
63773;BME280;49919;53.612;55.898;2022-09-23T04:15:50;99606.59;;;19.36;29.44
63773;BME280;49919;53.612;55.898;2022-09-23T04:17:21;99601.16;;;19.41;29.46
63773;BME280;49919;53.612;55.898;2022-09-23T04:18:52;99598.97;;;19.43;29.07
63773;BME280;49919;53.612;55.898;2022-09-23T04:20:23;99616.19;;;19.47;29.32
63773;BME280;49919;53.612;55.898;2022-09-23T04:21:55;99600.28;;;19.46;29.05
63773;BME280;49919;53.612;55.898;2022-09-23T04:23:27;99605.88;;;19.49;28.91
63773;BME280;49919;53.612;55.898;2022-09-23T04:24:58;99604.53;;;19.52;28.90
63773;BME280;49919;53.612;55.898;2022-09-23T04:26:30;99609.28;;;19.60;28.86
63773;BME280;49919;53.612;55.898;2022-09-23T04:28:00;99612.44;;;19.67;28.59
63773;BME280;49919;53.612;55.898;2022-09-23T04:29:32;99605.06;;;19.73;28.72
63773;BME280;49919;53.612;55.898;2022-09-23T04:31:04;99609.81;;;19.81;28.76
63773;BME280;49919;53.612;55.898;2022-09-23T04:32:35;99611.63;;;19.85;29.01
63773;BME280;49919;53.612;55.898;2022-09-23T04:34:08;99612.47;;;20.00;28.94
63773;BME280;49919;53.612;55.898;2022-09-23T04:35:39;99605.56;;;20.12;28.49
63773;BME280;49919;53.612;55.898;2022-09-23T04:37:11;99600.78;;;20.23;28.13
63773;BME280;49919;53.612;55.898;2022-09-23T04:38:43;99603.78;;;20.35;28.16
63773;BME280;49919;53.612;55.898;2022-09-23T04:40:14;99598.63;;;20.39;28.21
63773;BME280;49919;53.612;55.898;2022-09-23T04:41:45;99612.69;;;20.55;27.93
63773;BME280;49919;53.612;55.898;2022-09-23T04:43:16;99594.59;;;20.55;27.77
63773;BME280;49919;53.612;55.898;2022-09-23T04:44:48;99603.88;;;20.63;27.60
63773;BME280;49919;53.612;55.898;2022-09-23T04:46:19;99608.69;;;20.66;27.45
63773;BME280;49919;53.612;55.898;2022-09-23T04:47:50;99598.69;;;20.66;27.45
63773;BME280;49919;53.612;55.898;2022-09-23T04:49:21;99605.41;;;20.69;27.53
63773;BME280;49919;53.612;55.898;2022-09-23T04:50:53;99602.63;;;20.74;27.21
63773;BME280;49919;53.612;55.898;2022-09-23T04:52:24;99599.91;;;20.74;26.99
63773;BME280;49919;53.612;55.898;2022-09-23T04:53:55;99596.50;;;20.68;26.95
63773;BME280;49919;53.612;55.898;2022-09-23T04:55:26;99599.13;;;20.73;27.30
63773;BME280;49919;53.612;55.898;2022-09-23T04:56:57;99602.13;;;20.85;27.11
63773;BME280;49919;53.612;55.898;2022-09-23T04:58:28;99604.13;;;20.94;26.70
63773;BME280;49919;53.612;55.898;2022-09-23T04:59:59;99603.53;;;20.97;26.30
63773;BME280;49919;53.612;55.898;2022-09-23T05:01:32;99603.72;;;21.00;26.56
63773;BME280;49919;53.612;55.898;2022-09-23T05:03:03;99600.91;;;21.05;26.76
63773;BME280;49919;53.612;55.898;2022-09-23T05:04:34;99600.22;;;21.13;26.60
63773;BME280;49919;53.612;55.898;2022-09-23T05:06:07;99598.44;;;21.23;26.55
63773;BME280;49919;53.612;55.898;2022-09-23T05:07:38;99600.84;;;21.24;26.68
63773;BME280;49919;53.612;55.898;2022-09-23T05:09:13;99601.72;;;21.19;27.38
63773;BME280;49919;53.612;55.898;2022-09-23T05:10:45;99598.44;;;21.23;27.35
63773;BME280;49919;53.612;55.898;2022-09-23T05:12:16;99599.34;;;21.32;27.60
63773;BME280;49919;53.612;55.898;2022-09-23T05:13:47;99594.94;;;21.36;27.44
63773;BME280;49919;53.612;55.898;2022-09-23T05:15:19;99597.38;;;21.46;27.33
63773;BME280;49919;53.612;55.898;2022-09-23T05:16:50;99599.59;;;21.58;27.27
63773;BME280;49919;53.612;55.898;2022-09-23T05:18:21;99600.44;;;21.67;27.33
63773;BME280;49919;53.612;55.898;2022-09-23T05:19:52;99594.22;;;21.80;27.31
63773;BME280;49919;53.612;55.898;2022-09-23T05:21:24;99595.94;;;21.98;26.94
63773;BME280;49919;53.612;55.898;2022-09-23T05:22:58;99593.94;;;22.04;26.88
63773;BME280;49919;53.612;55.898;2022-09-23T05:24:29;99586.81;;;22.08;26.83
63773;BME280;49919;53.612;55.898;2022-09-23T05:26:06;99589.56;;;22.16;26.75
63773;BME280;49919;53.612;55.898;2022-09-23T05:27:37;99590.69;;;22.15;26.87
63773;BME280;49919;53.612;55.898;2022-09-23T05:29:09;99585.50;;;22.28;26.83
63773;BME280;49919;53.612;55.898;2022-09-23T05:30:40;99594.84;;;22.44;26.74
63773;BME280;49919;53.612;55.898;2022-09-23T05:32:12;99593.16;;;22.56;26.67
63773;BME280;49919;53.612;55.898;2022-09-23T05:33:46;99586.63;;;22.57;26.65
63773;BME280;49919;53.612;55.898;2022-09-23T05:35:18;99586.97;;;22.65;26.93
63773;BME280;49919;53.612;55.898;2022-09-23T05:36:49;99584.63;;;22.72;26.86
63773;BME280;49919;53.612;55.898;2022-09-23T05:38:20;99582.00;;;22.89;27.02
63773;BME280;49919;53.612;55.898;2022-09-23T05:39:51;99576.59;;;22.98;27.07
63773;BME280;49919;53.612;55.898;2022-09-23T05:41:22;99576.63;;;23.06;27.04
63773;BME280;49919;53.612;55.898;2022-09-23T05:42:54;99585.91;;;23.14;26.91
63773;BME280;49919;53.612;55.898;2022-09-23T05:44:26;99578.25;;;23.07;26.89
63773;BME280;49919;53.612;55.898;2022-09-23T05:46:12;99578.72;;;23.18;27.02
63773;BME280;49919;53.612;55.898;2022-09-23T05:47:43;99572.34;;;23.22;27.04
63773;BME280;49919;53.612;55.898;2022-09-23T05:49:14;99567.13;;;23.35;27.03
63773;BME280;49919;53.612;55.898;2022-09-23T05:50:49;99572.59;;;23.52;27.07
63773;BME280;49919;53.612;55.898;2022-09-23T05:52:20;99561.91;;;23.64;26.99
63773;BME280;49919;53.612;55.898;2022-09-23T05:53:52;99563.69;;;23.77;27.13
63773;BME280;49919;53.612;55.898;2022-09-23T05:55:23;99565.09;;;23.92;27.21
63773;BME280;49919;53.612;55.898;2022-09-23T05:56:54;99559.34;;;24.02;27.09
63773;BME280;49919;53.612;55.898;2022-09-23T05:58:26;99565.38;;;24.16;26.83
63773;BME280;49919;53.612;55.898;2022-09-23T05:59:57;99558.81;;;24.17;26.77
63773;BME280;49919;53.612;55.898;2022-09-23T06:01:30;99559.94;;;24.34;26.92
63773;BME280;49919;53.612;55.898;2022-09-23T06:03:03;99565.16;;;24.47;26.82
63773;BME280;49919;53.612;55.898;2022-09-23T06:04:34;99552.88;;;24.41;26.88
63773;BME280;49919;53.612;55.898;2022-09-23T06:06:06;99555.78;;;24.36;27.07
63773;BME280;49919;53.612;55.898;2022-09-23T06:07:41;99561.38;;;24.40;27.07
63773;BME280;49919;53.612;55.898;2022-09-23T06:09:13;99557.69;;;24.44;27.37
63773;BME280;49919;53.612;55.898;2022-09-23T06:10:47;99556.66;;;24.57;27.50
63773;BME280;49919;53.612;55.898;2022-09-23T06:12:19;99557.44;;;24.67;27.31
63773;BME280;49919;53.612;55.898;2022-09-23T06:13:55;99548.44;;;24.75;27.20
63773;BME280;49919;53.612;55.898;2022-09-23T06:15:31;99552.38;;;24.86;27.15
63773;BME280;49919;53.612;55.898;2022-09-23T06:17:02;99551.00;;;25.09;26.87
63773;BME280;49919;53.612;55.898;2022-09-23T06:18:34;99538.41;;;25.25;26.89
63773;BME280;49919;53.612;55.898;2022-09-23T06:20:06;99549.03;;;25.39;26.70
63773;BME280;49919;53.612;55.898;2022-09-23T06:21:38;99551.50;;;25.53;26.50
63773;BME280;49919;53.612;55.898;2022-09-23T06:23:10;99539.72;;;25.70;26.35
63773;BME280;49919;53.612;55.898;2022-09-23T06:24:41;99542.34;;;25.78;25.77
63773;BME280;49919;53.612;55.898;2022-09-23T06:26:13;99551.44;;;25.82;25.87
63773;BME280;49919;53.612;55.898;2022-09-23T06:27:54;99548.50;;;25.87;25.98
63773;BME280;49919;53.612;55.898;2022-09-23T06:29:26;99551.38;;;25.91;26.20
63773;BME280;49919;53.612;55.898;2022-09-23T06:30:58;99548.53;;;26.00;26.17
63773;BME280;49919;53.612;55.898;2022-09-23T06:32:29;99537.91;;;26.07;26.04
63773;BME280;49919;53.612;55.898;2022-09-23T06:34:00;99542.16;;;26.16;26.20
63773;BME280;49919;53.612;55.898;2022-09-23T06:35:31;99541.97;;;26.34;26.06
63773;BME280;49919;53.612;55.898;2022-09-23T06:37:02;99545.50;;;26.46;25.83
63773;BME280;49919;53.612;55.898;2022-09-23T06:38:37;99539.16;;;26.67;25.57
63773;BME280;49919;53.612;55.898;2022-09-23T06:40:08;99541.00;;;26.75;25.47
63773;BME280;49919;53.612;55.898;2022-09-23T06:41:40;99535.78;;;26.82;25.46
63773;BME280;49919;53.612;55.898;2022-09-23T06:43:15;99532.47;;;26.88;25.65
63773;BME280;49919;53.612;55.898;2022-09-23T06:44:46;99534.22;;;27.05;25.63
63773;BME280;49919;53.612;55.898;2022-09-23T06:46:17;99538.00;;;27.28;25.29
63773;BME280;49919;53.612;55.898;2022-09-23T06:47:55;99531.97;;;27.35;25.23
63773;BME280;49919;53.612;55.898;2022-09-23T06:49:26;99533.34;;;27.41;24.83
63773;BME280;49919;53.612;55.898;2022-09-23T06:50:58;99534.31;;;27.61;24.79
63773;BME280;49919;53.612;55.898;2022-09-23T06:52:31;99526.53;;;27.75;24.41
63773;BME280;49919;53.612;55.898;2022-09-23T06:54:02;99529.75;;;27.93;23.68
63773;BME280;49919;53.612;55.898;2022-09-23T06:55:34;99519.91;;;28.04;23.35
63773;BME280;49919;53.612;55.898;2022-09-23T06:57:05;99521.19;;;28.22;23.73
63773;BME280;49919;53.612;55.898;2022-09-23T06:58:36;99513.44;;;28.24;23.13
63773;BME280;49919;53.612;55.898;2022-09-23T07:00:11;99520.38;;;28.22;22.61
63773;BME280;49919;53.612;55.898;2022-09-23T07:01:42;99512.84;;;28.03;22.32
63773;BME280;49919;53.612;55.898;2022-09-23T07:03:14;99521.13;;;27.91;22.31
63773;BME280;49919;53.612;55.898;2022-09-23T07:04:46;99514.94;;;27.94;21.67
63773;BME280;49919;53.612;55.898;2022-09-23T07:06:17;99510.81;;;28.00;21.57
63773;BME280;49919;53.612;55.898;2022-09-23T07:07:48;99511.19;;;28.14;21.78
63773;BME280;49919;53.612;55.898;2022-09-23T07:09:19;99519.97;;;28.36;21.29
63773;BME280;49919;53.612;55.898;2022-09-23T07:10:58;99528.28;;;28.55;19.93
63773;BME280;49919;53.612;55.898;2022-09-23T07:12:29;99517.31;;;28.71;20.41
63773;BME280;49919;53.612;55.898;2022-09-23T07:14:00;99513.78;;;28.86;19.78
63773;BME280;49919;53.612;55.898;2022-09-23T07:15:31;99510.38;;;29.08;19.13
63773;BME280;49919;53.612;55.898;2022-09-23T07:17:03;99507.66;;;29.27;18.86
63773;BME280;49919;53.612;55.898;2022-09-23T07:18:35;99517.81;;;29.43;18.98
63773;BME280;49919;53.612;55.898;2022-09-23T07:20:07;99509.72;;;29.50;18.84
63773;BME280;49919;53.612;55.898;2022-09-23T07:21:38;99509.16;;;29.60;19.08
63773;BME280;49919;53.612;55.898;2022-09-23T07:23:09;99498.31;;;29.67;18.84
63773;BME280;49919;53.612;55.898;2022-09-23T07:24:40;99500.78;;;29.53;18.28
63773;BME280;49919;53.612;55.898;2022-09-23T07:26:14;99501.88;;;29.48;18.62
63773;BME280;49919;53.612;55.898;2022-09-23T07:27:45;99509.81;;;29.53;18.71
63773;BME280;49919;53.612;55.898;2022-09-23T07:29:17;99502.53;;;29.61;18.51
63773;BME280;49919;53.612;55.898;2022-09-23T07:30:48;99503.16;;;29.74;18.76
63773;BME280;49919;53.612;55.898;2022-09-23T07:32:21;99498.31;;;29.86;18.76
63773;BME280;49919;53.612;55.898;2022-09-23T07:33:55;99496.84;;;29.92;18.45
63773;BME280;49919;53.612;55.898;2022-09-23T07:35:27;99509.34;;;30.09;18.58
63773;BME280;49919;53.612;55.898;2022-09-23T07:36:58;99501.00;;;30.25;18.17
63773;BME280;49919;53.612;55.898;2022-09-23T07:38:28;99502.38;;;30.38;18.41
63773;BME280;49919;53.612;55.898;2022-09-23T07:40:01;99495.38;;;30.63;18.15
63773;BME280;49919;53.612;55.898;2022-09-23T07:41:33;99499.84;;;30.72;17.22
63773;BME280;49919;53.612;55.898;2022-09-23T07:43:05;99500.25;;;30.74;17.27
63773;BME280;49919;53.612;55.898;2022-09-23T07:44:37;99496.72;;;30.73;17.46
63773;BME280;49919;53.612;55.898;2022-09-23T07:46:16;99497.91;;;30.76;17.81
63773;BME280;49919;53.612;55.898;2022-09-23T07:47:47;99499.84;;;30.72;17.05
63773;BME280;49919;53.612;55.898;2022-09-23T07:49:19;99494.53;;;30.59;17.39
63773;BME280;49919;53.612;55.898;2022-09-23T07:50:50;99504.03;;;30.65;17.18
63773;BME280;49919;53.612;55.898;2022-09-23T07:52:21;99502.22;;;30.73;17.22
63773;BME280;49919;53.612;55.898;2022-09-23T07:53:53;99492.97;;;30.85;16.89
63773;BME280;49919;53.612;55.898;2022-09-23T07:55:24;99514.44;;;31.06;16.67
63773;BME280;49919;53.612;55.898;2022-09-23T07:56:55;99503.72;;;31.23;16.32
63773;BME280;49919;53.612;55.898;2022-09-23T07:58:26;99509.38;;;31.34;16.26
63773;BME280;49919;53.612;55.898;2022-09-23T07:59:57;99500.06;;;31.46;16.05
63773;BME280;49919;53.612;55.898;2022-09-23T08:01:35;99500.28;;;31.63;15.76
63773;BME280;49919;53.612;55.898;2022-09-23T08:03:06;99496.06;;;31.69;15.51
63773;BME280;49919;53.612;55.898;2022-09-23T08:04:37;99486.81;;;31.85;15.57
63773;BME280;49919;53.612;55.898;2022-09-23T08:06:10;99499.16;;;32.01;15.21
63773;BME280;49919;53.612;55.898;2022-09-23T08:07:42;99495.63;;;32.04;14.82
63773;BME280;49919;53.612;55.898;2022-09-23T08:09:14;99488.09;;;31.94;14.64
63773;BME280;49919;53.612;55.898;2022-09-23T08:10:45;99483.09;;;32.03;14.83
63773;BME280;49919;53.612;55.898;2022-09-23T08:12:17;99483.63;;;32.20;14.81
63773;BME280;49919;53.612;55.898;2022-09-23T08:13:48;99480.63;;;32.35;14.50
63773;BME280;49919;53.612;55.898;2022-09-23T08:15:19;99480.63;;;32.35;14.78
63773;BME280;49919;53.612;55.898;2022-09-23T08:16:51;99481.91;;;32.45;14.54
63773;BME280;49919;53.612;55.898;2022-09-23T08:18:22;99486.63;;;32.48;14.24
63773;BME280;49919;53.612;55.898;2022-09-23T08:19:52;99483.63;;;32.67;13.92
63773;BME280;49919;53.612;55.898;2022-09-23T08:21:23;99489.78;;;33.01;13.45
63773;BME280;49919;53.612;55.898;2022-09-23T08:22:54;99486.00;;;33.34;13.57
63773;BME280;49919;53.612;55.898;2022-09-23T08:24:25;99491.34;;;33.86;13.26
63773;BME280;49919;53.612;55.898;2022-09-23T08:25:58;99476.84;;;34.42;13.24
63773;BME280;49919;53.612;55.898;2022-09-23T08:27:30;99482.25;;;35.13;12.81
63773;BME280;49919;53.612;55.898;2022-09-23T08:29:03;99475.69;;;35.77;12.80
63773;BME280;49919;53.612;55.898;2022-09-23T08:30:34;99469.63;;;36.48;12.55
63773;BME280;49919;53.612;55.898;2022-09-23T08:32:05;99475.53;;;36.94;11.88
63773;BME280;49919;53.612;55.898;2022-09-23T08:33:36;99469.94;;;37.32;11.71
63773;BME280;49919;53.612;55.898;2022-09-23T08:35:07;99476.94;;;37.74;10.83
63773;BME280;49919;53.612;55.898;2022-09-23T08:36:39;99468.59;;;38.51;10.86
63773;BME280;49919;53.612;55.898;2022-09-23T08:38:09;99475.72;;;39.19;10.30
63773;BME280;49919;53.612;55.898;2022-09-23T08:39:40;99465.34;;;39.75;10.02
63773;BME280;49919;53.612;55.898;2022-09-23T08:41:21;99464.72;;;40.20;9.45
63773;BME280;49919;53.612;55.898;2022-09-23T08:42:55;99471.47;;;40.67;9.34
63773;BME280;49919;53.612;55.898;2022-09-23T08:46:08;99473.50;;;41.25;8.97
63773;BME280;49919;53.612;55.898;2022-09-23T08:47:53;99457.53;;;41.25;9.06
63773;BME280;49919;53.612;55.898;2022-09-23T08:49:38;99458.97;;;41.17;9.07
63773;BME280;49919;53.612;55.898;2022-09-23T08:51:13;99463.13;;;41.25;8.77
63773;BME280;49919;53.612;55.898;2022-09-23T08:54:24;99459.03;;;41.55;8.55
63773;BME280;49919;53.612;55.898;2022-09-23T08:56:03;99455.38;;;41.71;8.33
63773;BME280;49919;53.612;55.898;2022-09-23T08:57:44;99456.28;;;41.14;8.68
63773;BME280;49919;53.612;55.898;2022-09-23T09:02:54;99460.44;;;42.36;8.54
63773;BME280;49919;53.612;55.898;2022-09-23T09:04:36;99453.16;;;42.86;7.93
63773;BME280;49919;53.612;55.898;2022-09-23T09:06:16;99452.00;;;43.49;7.77